createdAt,value
2017-11-22T00:01:45.813Z,7.70
2017-11-22T00:04:11.799Z,7.60
2017-11-22T00:06:39.381Z,7.70
2017-11-22T00:09:06.091Z,7.80
2017-11-22T00:11:32.101Z,7.80
2017-11-22T00:13:58.128Z,7.80
2017-11-22T00:16:24.159Z,7.90
2017-11-22T00:18:50.155Z,7.90
2017-11-22T00:21:16.153Z,8.00
2017-11-22T00:23:42.135Z,8.00
2017-11-22T00:26:08.116Z,8.10
2017-11-22T00:28:34.131Z,8.10
2017-11-22T00:31:00.127Z,8.20
2017-11-22T00:33:26.129Z,8.40
2017-11-22T00:35:52.901Z,8.80
2017-11-22T00:38:18.880Z,8.80
2017-11-22T00:40:44.884Z,9.00
2017-11-22T00:43:10.886Z,9.10
2017-11-22T00:45:36.883Z,9.30
2017-11-22T00:48:02.882Z,9.40
2017-11-22T00:50:29.665Z,9.80
2017-11-22T00:52:55.679Z,9.70
2017-11-22T00:55:21.693Z,9.80
2017-11-22T00:57:47.722Z,9.80
2017-11-22T01:00:13.703Z,9.90
2017-11-22T01:02:40.453Z,9.90
2017-11-22T01:05:07.393Z,10.00
2017-11-22T01:07:34.139Z,10.00
2017-11-22T01:10:00.868Z,10.10
2017-11-22T01:12:27.613Z,10.20
2017-11-22T01:14:54.335Z,10.20
2017-11-22T01:17:20.321Z,10.20
2017-11-22T01:19:46.315Z,10.10
2017-11-22T01:22:12.310Z,10.10
2017-11-22T01:24:39.340Z,10.00
2017-11-22T01:27:05.334Z,10.00
2017-11-22T01:29:31.344Z,10.00
2017-11-22T01:31:57.338Z,10.00
2017-11-22T01:34:24.098Z,10.00
2017-11-22T01:36:50.087Z,10.00
2017-11-22T01:39:17.121Z,10.00
2017-11-22T01:41:43.152Z,10.00
2017-11-22T01:44:09.914Z,10.10
2017-11-22T01:46:35.937Z,10.00
2017-11-22T01:49:01.936Z,10.00
2017-11-22T01:51:27.938Z,10.10
2017-11-22T01:53:53.966Z,10.10
2017-11-22T01:56:19.966Z,10.10
2017-11-22T01:58:45.955Z,10.10
2017-11-22T02:01:12.261Z,10.00
2017-11-22T02:03:39.005Z,10.00
2017-11-22T02:06:05.000Z,10.00
2017-11-22T02:08:31.058Z,10.00
2017-11-22T02:10:57.049Z,10.00
2017-11-22T02:13:23.037Z,10.00
2017-11-22T02:15:49.049Z,10.00
2017-11-22T02:18:15.070Z,10.00
2017-11-22T02:20:41.098Z,10.00
2017-11-22T02:23:07.078Z,10.00
2017-11-22T02:25:33.824Z,10.00
2017-11-22T02:28:00.584Z,10.00
2017-11-22T02:30:26.572Z,9.90
2017-11-22T02:32:53.310Z,10.00
2017-11-22T02:35:27.142Z,10.00
2017-11-22T02:37:53.144Z,9.90
2017-11-22T02:40:19.886Z,9.90
2017-11-22T02:42:46.673Z,9.90
2017-11-22T02:45:12.672Z,9.90
2017-11-22T02:47:38.969Z,9.90
2017-11-22T02:50:05.769Z,9.90
2017-11-22T02:52:31.759Z,9.80
2017-11-22T02:54:57.766Z,9.90
2017-11-22T02:57:24.482Z,9.70
2017-11-22T02:59:50.474Z,9.70
2017-11-22T03:02:17.269Z,9.70
2017-11-22T03:04:43.992Z,9.90
2017-11-22T03:07:10.723Z,9.80
2017-11-22T03:09:36.726Z,9.80
2017-11-22T03:12:02.726Z,9.70
2017-11-22T03:14:28.769Z,9.70
2017-11-22T03:16:54.764Z,9.70
2017-11-22T03:19:20.746Z,9.70
2017-11-22T03:21:47.507Z,9.80
2017-11-22T03:24:13.496Z,9.80
2017-11-22T03:26:39.470Z,9.80
2017-11-22T03:29:05.482Z,9.80
2017-11-22T03:31:31.465Z,9.80
2017-11-22T03:33:58.195Z,9.70
2017-11-22T03:36:24.325Z,9.70
2017-11-22T03:38:50.344Z,9.80
2017-11-22T03:41:16.338Z,9.80
2017-11-22T03:43:42.385Z,9.70
2017-11-22T03:46:08.381Z,9.80
2017-11-22T03:48:34.444Z,9.80
2017-11-22T03:51:02.031Z,9.80
2017-11-22T03:53:34.102Z,9.80
2017-11-22T03:56:00.095Z,9.80
2017-11-22T03:58:26.851Z,9.80
2017-11-22T04:00:52.877Z,9.80
2017-11-22T04:03:18.886Z,9.80
2017-11-22T04:05:52.576Z,9.80
2017-11-22T04:08:19.307Z,9.80
2017-11-22T04:10:47.219Z,9.80
2017-11-22T04:13:13.229Z,9.80
2017-11-22T04:15:39.593Z,9.80
2017-11-22T04:18:05.634Z,9.80
2017-11-22T04:20:37.962Z,9.80
2017-11-22T04:23:03.934Z,9.80
2017-11-22T04:25:29.907Z,9.80
2017-11-22T04:27:55.908Z,9.80
2017-11-22T04:30:21.902Z,9.80
2017-11-22T04:32:48.705Z,9.80
2017-11-22T04:35:14.711Z,9.80
2017-11-22T04:37:40.689Z,9.80
2017-11-22T04:40:06.659Z,9.80
2017-11-22T04:42:33.212Z,9.80
2017-11-22T04:44:59.202Z,9.80
2017-11-22T04:47:25.226Z,9.80
2017-11-22T04:49:51.237Z,9.80
2017-11-22T04:52:17.261Z,9.80
2017-11-22T04:54:43.293Z,9.80
2017-11-22T04:57:09.585Z,9.80
2017-11-22T04:59:36.379Z,9.90
2017-11-22T05:02:02.369Z,9.90
2017-11-22T05:04:28.391Z,9.90
2017-11-22T05:06:55.123Z,9.80
2017-11-22T05:09:21.876Z,9.80
2017-11-22T05:11:47.842Z,9.80
2017-11-22T05:14:14.206Z,9.80
2017-11-22T05:16:40.942Z,9.80
2017-11-22T05:19:07.682Z,9.80
2017-11-22T05:21:34.618Z,9.80
2017-11-22T05:24:00.593Z,9.80
2017-11-22T05:26:26.566Z,9.80
2017-11-22T05:28:52.573Z,9.80
2017-11-22T05:31:18.592Z,9.90
2017-11-22T05:33:44.580Z,9.90
2017-11-22T05:36:10.607Z,9.80
2017-11-22T05:38:36.640Z,9.80
2017-11-22T05:41:02.637Z,9.80
2017-11-22T05:43:28.619Z,9.90
2017-11-22T05:45:54.626Z,9.90
2017-11-22T05:48:20.628Z,9.90
2017-11-22T05:50:46.617Z,9.90
2017-11-22T05:53:12.647Z,9.90
2017-11-22T05:55:38.629Z,9.90
2017-11-22T05:58:05.386Z,10.00
2017-11-22T06:00:38.575Z,10.00
2017-11-22T06:03:05.309Z,10.00
2017-11-22T06:05:32.046Z,9.90
2017-11-22T06:07:59.002Z,9.90
2017-11-22T06:10:24.998Z,9.90
2017-11-22T06:12:50.994Z,10.00
2017-11-22T06:15:17.167Z,9.90
2017-11-22T06:17:43.134Z,10.00
2017-11-22T06:20:09.131Z,10.00
2017-11-22T06:22:35.132Z,10.00
2017-11-22T06:25:01.867Z,9.90
2017-11-22T06:27:28.605Z,10.00
2017-11-22T06:29:56.686Z,9.90
2017-11-22T06:32:23.414Z,10.00
2017-11-22T06:34:50.143Z,10.00
2017-11-22T06:37:16.125Z,10.00
2017-11-22T06:39:42.107Z,10.00
2017-11-22T06:42:08.823Z,10.10
2017-11-22T06:44:35.571Z,10.10
2017-11-22T06:47:02.298Z,10.00
2017-11-22T06:49:28.287Z,10.00
2017-11-22T06:51:54.280Z,10.00
2017-11-22T06:54:20.268Z,10.10
2017-11-22T06:56:46.242Z,10.00
2017-11-22T06:59:12.254Z,10.00
2017-11-22T07:01:38.276Z,10.00
2017-11-22T07:04:04.283Z,10.00
2017-11-22T07:06:30.562Z,10.00
2017-11-22T07:08:56.550Z,10.10
2017-11-22T07:11:22.569Z,10.00
2017-11-22T07:13:49.036Z,10.00
2017-11-22T07:16:21.350Z,10.00
2017-11-22T07:18:48.098Z,10.00
2017-11-22T07:21:15.018Z,10.00
2017-11-22T07:23:41.742Z,10.10
2017-11-22T07:26:07.754Z,10.10
2017-11-22T07:28:34.823Z,10.10
2017-11-22T07:31:01.559Z,10.10
2017-11-22T07:33:27.522Z,10.10
2017-11-22T07:35:59.843Z,10.10
2017-11-22T07:38:25.825Z,10.10
2017-11-22T07:40:51.795Z,10.10
2017-11-22T07:43:17.804Z,10.10
2017-11-22T07:45:43.853Z,10.10
2017-11-22T07:48:14.478Z,10.20
2017-11-22T07:50:41.260Z,10.20
2017-11-22T07:53:07.252Z,10.20
2017-11-22T07:55:34.045Z,10.10
2017-11-22T07:58:00.081Z,10.10
2017-11-22T08:00:26.038Z,10.20
2017-11-22T08:02:58.185Z,10.20
2017-11-22T08:05:24.941Z,10.20
2017-11-22T08:07:51.690Z,10.20
2017-11-22T08:10:17.762Z,10.20
2017-11-22T08:12:43.804Z,10.20
2017-11-22T08:15:09.787Z,10.20
2017-11-22T08:17:35.783Z,10.20
2017-11-22T08:20:01.981Z,10.20
2017-11-22T08:22:28.723Z,10.30
2017-11-22T08:24:55.442Z,10.30
2017-11-22T08:27:21.787Z,10.30
2017-11-22T08:29:47.782Z,10.30
2017-11-22T08:32:13.750Z,10.20
2017-11-22T08:34:40.709Z,10.20
2017-11-22T08:37:06.706Z,10.20
2017-11-22T08:39:33.434Z,10.30
2017-11-22T08:42:00.158Z,10.30
2017-11-22T08:44:26.924Z,10.40
2017-11-22T08:46:54.580Z,10.30
2017-11-22T08:49:21.330Z,10.30
2017-11-22T08:51:48.080Z,10.30
2017-11-22T08:54:20.322Z,10.30
2017-11-22T08:56:53.273Z,10.30
2017-11-22T08:59:19.250Z,10.30
2017-11-22T09:01:45.285Z,10.30
2017-11-22T09:04:11.257Z,10.30
2017-11-22T09:06:38.050Z,10.30
2017-11-22T09:09:04.339Z,10.30
2017-11-22T09:11:30.320Z,10.40
2017-11-22T09:13:56.301Z,10.40
2017-11-22T09:16:22.677Z,10.40
2017-11-22T09:18:53.544Z,10.40
2017-11-22T09:21:20.294Z,10.40
2017-11-22T09:23:47.061Z,10.40
2017-11-22T09:26:13.038Z,10.40
2017-11-22T09:28:39.037Z,10.40
2017-11-22T09:31:11.137Z,10.50
2017-11-22T09:33:37.115Z,10.50
2017-11-22T09:36:03.138Z,10.40
2017-11-22T09:38:29.149Z,10.40
2017-11-22T09:40:55.190Z,10.40
2017-11-22T09:43:21.161Z,10.50
2017-11-22T09:45:47.905Z,10.40
2017-11-22T09:48:14.623Z,10.50
2017-11-22T09:50:40.591Z,10.40
2017-11-22T09:53:06.583Z,10.40
2017-11-22T09:55:33.302Z,10.40
2017-11-22T09:57:59.283Z,10.40
2017-11-22T10:00:25.308Z,10.40
2017-11-22T10:02:51.303Z,10.50
2017-11-22T10:05:17.283Z,10.50
2017-11-22T10:07:44.095Z,10.50
2017-11-22T10:10:10.061Z,10.50
2017-11-22T10:12:36.788Z,10.50
2017-11-22T10:15:02.782Z,10.50
2017-11-22T10:17:31.707Z,10.50
2017-11-22T10:20:03.627Z,10.60
2017-11-22T10:22:29.632Z,10.60
2017-11-22T10:25:02.170Z,10.60
2017-11-22T10:27:28.906Z,10.60
2017-11-22T10:29:55.665Z,10.70
2017-11-22T10:32:25.394Z,10.70
2017-11-22T10:34:51.382Z,10.60
2017-11-22T10:37:18.222Z,10.70
2017-11-22T10:39:44.963Z,10.70
2017-11-22T10:42:11.714Z,10.70
2017-11-22T10:44:37.712Z,10.70
2017-11-22T10:47:04.450Z,10.80
2017-11-22T10:49:30.447Z,10.80
2017-11-22T10:51:56.439Z,10.70
2017-11-22T10:54:22.423Z,10.70
2017-11-22T10:56:49.157Z,10.60
2017-11-22T10:59:15.143Z,10.60
2017-11-22T11:01:41.117Z,10.60
2017-11-22T11:04:08.280Z,10.50
2017-11-22T11:06:34.286Z,10.50
2017-11-22T11:09:01.032Z,10.50
2017-11-22T11:11:27.037Z,10.50
2017-11-22T11:13:53.764Z,10.50
2017-11-22T11:16:19.750Z,10.50
2017-11-22T11:18:45.947Z,10.40
2017-11-22T11:21:11.945Z,10.40
2017-11-22T11:23:38.767Z,10.40
2017-11-22T11:26:04.804Z,10.40
2017-11-22T11:28:30.795Z,10.40
2017-11-22T11:30:56.797Z,10.40
2017-11-22T11:33:22.777Z,10.50
2017-11-22T11:36:02.318Z,10.50
2017-11-22T11:38:29.041Z,10.40
2017-11-22T11:40:55.018Z,10.40
2017-11-22T11:43:21.308Z,10.40
2017-11-22T11:45:48.060Z,10.40
2017-11-22T11:48:14.046Z,10.40
2017-11-22T11:50:40.414Z,10.50
2017-11-22T11:53:06.392Z,10.40
2017-11-22T11:55:32.399Z,10.40
2017-11-22T11:57:58.387Z,10.40
2017-11-22T12:00:24.430Z,10.40
2017-11-22T12:02:50.817Z,10.40
2017-11-22T12:05:17.567Z,10.40
2017-11-22T12:07:44.291Z,10.40
2017-11-22T12:10:11.770Z,10.40
2017-11-22T12:12:37.774Z,10.40
2017-11-22T12:15:04.518Z,10.40
2017-11-22T12:17:31.266Z,10.40
2017-11-22T12:19:57.981Z,10.40
2017-11-22T12:22:30.008Z,10.50
2017-11-22T12:24:56.284Z,10.50
2017-11-22T12:27:22.998Z,10.50
2017-11-22T12:29:49.002Z,10.50
2017-11-22T12:32:15.265Z,10.50
2017-11-22T12:34:42.030Z,10.50
2017-11-22T12:37:08.014Z,10.50
2017-11-22T12:39:35.086Z,10.50
2017-11-22T12:42:01.798Z,10.50
2017-11-22T12:44:27.785Z,10.50
2017-11-22T12:46:54.094Z,10.50
2017-11-22T12:49:20.062Z,10.60
2017-11-22T12:51:46.045Z,10.50
2017-11-22T12:54:12.039Z,10.50
2017-11-22T12:56:38.796Z,10.50
2017-11-22T12:59:04.992Z,10.60
2017-11-22T13:01:31.020Z,10.50
2017-11-22T13:03:57.758Z,10.60
2017-11-22T13:06:24.510Z,10.60
2017-11-22T13:08:50.557Z,10.60
2017-11-22T13:11:22.782Z,10.60
2017-11-22T13:13:49.013Z,10.60
2017-11-22T13:16:15.732Z,10.60
2017-11-22T13:18:41.726Z,10.60
2017-11-22T13:21:14.880Z,10.60
2017-11-22T13:23:40.893Z,10.60
2017-11-22T13:26:07.619Z,10.70
2017-11-22T13:28:33.647Z,10.60
2017-11-22T13:31:00.370Z,10.70
2017-11-22T13:33:26.366Z,10.70
2017-11-22T13:35:52.375Z,10.70
2017-11-22T13:38:18.351Z,10.70
2017-11-22T13:40:45.085Z,10.80
2017-11-22T13:43:11.374Z,10.70
2017-11-22T13:45:37.396Z,10.70
2017-11-22T13:48:03.362Z,10.70
2017-11-22T13:50:30.467Z,10.80
2017-11-22T13:52:56.435Z,10.70
2017-11-22T13:55:23.177Z,10.80
2017-11-22T13:57:49.930Z,10.90
2017-11-22T14:00:15.917Z,10.80
2017-11-22T14:02:41.898Z,10.90
2017-11-22T14:05:08.006Z,10.90
2017-11-22T14:07:33.989Z,10.90
2017-11-22T14:09:59.971Z,10.90
2017-11-22T14:12:26.256Z,10.90
2017-11-22T14:14:52.964Z,10.90
2017-11-22T14:17:18.950Z,10.90
2017-11-22T14:19:44.936Z,11.00
2017-11-22T14:22:11.686Z,11.00
2017-11-22T14:24:37.661Z,11.00
2017-11-22T14:27:03.661Z,11.00
2017-11-22T14:29:29.640Z,11.00
2017-11-22T14:31:56.387Z,11.10
2017-11-22T14:34:23.323Z,11.10
2017-11-22T14:36:50.045Z,11.10
2017-11-22T14:39:16.029Z,11.10
2017-11-22T14:41:42.033Z,11.00
2017-11-22T14:44:08.137Z,11.10
2017-11-22T14:46:34.874Z,11.00
2017-11-22T14:49:01.642Z,11.00
2017-11-22T14:51:27.629Z,11.00
2017-11-22T14:53:54.350Z,11.00
2017-11-22T14:56:20.355Z,11.00
2017-11-22T14:58:46.358Z,11.10
2017-11-22T15:01:12.442Z,11.10
2017-11-22T15:03:39.216Z,11.00
2017-11-22T15:06:05.211Z,11.00
2017-11-22T15:08:31.192Z,11.10
2017-11-22T15:10:57.214Z,11.10
2017-11-22T15:13:23.193Z,11.10
2017-11-22T15:15:49.390Z,11.10
2017-11-22T15:18:16.116Z,11.10
2017-11-22T15:20:42.082Z,11.10
2017-11-22T15:23:08.083Z,11.00
2017-11-22T15:25:34.074Z,11.00
2017-11-22T15:28:00.066Z,11.00
2017-11-22T15:30:26.069Z,11.00
2017-11-22T15:32:52.046Z,11.10
2017-11-22T15:35:18.009Z,11.10
2017-11-22T15:37:44.069Z,11.10
2017-11-22T15:40:10.070Z,11.00
2017-11-22T15:42:36.038Z,11.00
2017-11-22T15:45:02.787Z,11.00
2017-11-22T15:47:29.517Z,11.00
2017-11-22T15:49:56.373Z,11.00
2017-11-22T15:52:25.360Z,11.00
2017-11-22T15:54:51.943Z,11.00
2017-11-22T15:57:19.363Z,10.90
2017-11-22T15:59:45.368Z,11.00
2017-11-22T16:02:12.106Z,11.00
2017-11-22T16:04:38.853Z,11.00
2017-11-22T16:07:05.606Z,10.90
2017-11-22T16:09:31.585Z,10.90
2017-11-22T16:11:57.903Z,10.80
2017-11-22T16:14:23.929Z,10.80
2017-11-22T16:16:49.938Z,10.80
2017-11-22T16:19:15.954Z,10.70
2017-11-22T16:21:41.929Z,10.70
2017-11-22T16:24:08.666Z,10.70
2017-11-22T16:26:35.441Z,10.70
2017-11-22T16:29:01.450Z,10.70
2017-11-22T16:31:27.439Z,10.60
2017-11-22T16:33:54.479Z,10.60
2017-11-22T16:36:20.477Z,10.60
2017-11-22T16:38:47.248Z,10.60
2017-11-22T16:41:13.241Z,10.60
2017-11-22T16:43:39.242Z,10.60
2017-11-22T16:46:05.247Z,10.50
2017-11-22T16:48:31.257Z,10.50
2017-11-22T16:50:57.994Z,10.50
2017-11-22T16:53:24.735Z,10.50
2017-11-22T16:55:50.741Z,10.40
2017-11-22T16:58:17.489Z,10.40
2017-11-22T17:00:44.213Z,10.40
2017-11-22T17:03:10.194Z,10.40
2017-11-22T17:05:36.229Z,10.30
2017-11-22T17:08:02.223Z,10.40
2017-11-22T17:10:28.204Z,10.40
2017-11-22T17:12:54.218Z,10.30
2017-11-22T17:15:20.217Z,10.30
2017-11-22T17:17:46.252Z,10.30
2017-11-22T17:20:12.495Z,10.30
2017-11-22T17:22:40.377Z,10.30
2017-11-22T17:25:07.426Z,10.30
2017-11-22T17:27:34.269Z,10.30
2017-11-22T17:30:01.003Z,10.30
2017-11-22T17:32:27.733Z,10.20
2017-11-22T17:34:54.474Z,10.20
2017-11-22T17:37:30.845Z,10.20
2017-11-22T17:39:56.973Z,10.20
2017-11-22T17:42:23.711Z,10.20
2017-11-22T17:44:50.445Z,10.10
2017-11-22T17:47:17.384Z,10.10
2017-11-22T17:49:44.742Z,10.10
2017-11-22T17:52:11.468Z,10.00
2017-11-22T17:54:37.482Z,10.00
2017-11-22T17:57:03.491Z,10.10
2017-11-22T17:59:29.486Z,10.00
2017-11-22T18:01:55.461Z,10.00
2017-11-22T18:04:22.196Z,10.00
2017-11-22T18:06:48.195Z,10.00
2017-11-22T18:09:14.201Z,10.00
2017-11-22T18:11:40.166Z,10.00
2017-11-22T18:14:06.927Z,9.90
2017-11-22T18:16:34.360Z,9.90
2017-11-22T18:21:34.506Z,10.00
2017-11-22T18:24:00.534Z,10.00
2017-11-22T18:26:26.524Z,10.00
2017-11-22T18:28:52.871Z,10.10
2017-11-22T18:31:19.622Z,10.00
2017-11-22T18:33:46.357Z,9.90
2017-11-22T18:36:13.114Z,10.00
2017-11-22T18:38:39.120Z,10.00
2017-11-22T18:41:05.852Z,9.90
2017-11-22T18:43:32.794Z,9.90
2017-11-22T18:45:59.533Z,9.90
2017-11-22T18:48:26.275Z,9.90
2017-11-22T18:50:53.335Z,9.90
2017-11-22T18:53:20.071Z,9.90
2017-11-22T18:55:46.800Z,9.80
2017-11-22T18:58:13.558Z,9.80
2017-11-22T19:00:39.538Z,9.80
2017-11-22T19:03:05.564Z,9.80
2017-11-22T19:05:31.576Z,9.80
2017-11-22T19:07:57.574Z,9.70
2017-11-22T19:10:23.571Z,9.70
2017-11-22T19:12:49.565Z,9.60
2017-11-22T19:15:16.298Z,9.50
2017-11-22T19:17:42.290Z,9.50
2017-11-22T19:20:08.316Z,9.40
2017-11-22T19:22:34.322Z,9.50
2017-11-22T19:25:00.342Z,9.50
2017-11-22T19:27:26.676Z,9.40
2017-11-22T19:29:52.715Z,9.40
2017-11-22T19:32:18.756Z,9.40
2017-11-22T19:34:44.900Z,9.30
2017-11-22T19:37:12.463Z,9.20
2017-11-22T19:39:39.220Z,9.10
2017-11-22T19:42:05.283Z,9.10
2017-11-22T19:44:31.354Z,9.00
2017-11-22T19:46:57.331Z,9.10
2017-11-22T19:49:23.360Z,9.10
2017-11-22T19:51:50.209Z,9.00
2017-11-22T19:54:16.263Z,9.00
2017-11-22T19:56:42.417Z,9.00
2017-11-22T19:59:08.471Z,8.90
2017-11-22T20:01:34.562Z,8.80
2017-11-22T20:04:00.681Z,8.80
2017-11-22T20:06:26.722Z,8.70
2017-11-22T20:08:52.774Z,8.80
2017-11-22T20:11:18.786Z,8.90
2017-11-22T20:13:44.806Z,8.80
2017-11-22T20:16:10.868Z,8.80
2017-11-22T20:18:37.727Z,8.80
2017-11-22T20:21:03.799Z,8.80
2017-11-22T20:23:29.803Z,8.70
2017-11-22T20:25:55.844Z,8.70
2017-11-22T20:28:21.894Z,8.70
2017-11-22T20:30:48.634Z,8.70
2017-11-22T20:33:14.721Z,8.70
2017-11-22T20:35:40.765Z,8.70
2017-11-22T20:38:06.829Z,8.70
2017-11-22T20:40:32.842Z,8.70
2017-11-22T20:42:58.962Z,8.70
2017-11-22T20:45:25.004Z,8.70
2017-11-22T20:47:51.041Z,8.70
2017-11-22T20:50:17.164Z,8.60
2017-11-22T20:52:43.204Z,8.70
2017-11-22T20:55:09.230Z,8.60
2017-11-22T20:57:39.759Z,8.60
2017-11-22T21:00:07.928Z,8.60
2017-11-22T21:02:34.405Z,8.50
2017-11-22T21:05:01.276Z,8.50
2017-11-22T21:07:27.255Z,8.50
2017-11-22T21:09:54.011Z,8.50
2017-11-22T21:12:20.063Z,8.50
2017-11-22T21:14:46.063Z,8.50
2017-11-22T21:17:12.072Z,8.50
2017-11-22T21:19:38.854Z,8.40
2017-11-22T21:22:04.859Z,8.40
2017-11-22T21:24:30.878Z,8.40
2017-11-22T21:26:56.885Z,8.50
2017-11-22T21:29:23.626Z,8.50
2017-11-22T21:31:49.786Z,8.50
2017-11-22T21:34:15.784Z,8.50
2017-11-22T21:36:41.766Z,8.50
2017-11-22T21:39:07.765Z,8.40
2017-11-22T21:41:33.775Z,8.40
2017-11-22T21:43:59.779Z,8.50
2017-11-22T21:46:25.767Z,8.50
2017-11-22T21:48:52.545Z,8.50
2017-11-22T21:51:18.552Z,8.50
2017-11-22T21:53:44.541Z,8.70
2017-11-22T21:56:10.537Z,8.60
2017-11-22T21:58:36.555Z,8.60
2017-11-22T22:01:02.559Z,8.70
2017-11-22T22:03:28.570Z,8.50
2017-11-22T22:05:54.610Z,8.60
2017-11-22T22:08:20.598Z,8.60
2017-11-22T22:10:46.721Z,8.50
2017-11-22T22:13:13.487Z,8.60
2017-11-22T22:15:39.458Z,8.60
2017-11-22T22:18:05.466Z,8.50
2017-11-22T22:20:31.522Z,8.40
2017-11-22T22:22:58.287Z,8.50
2017-11-22T22:25:24.310Z,8.50
2017-11-22T22:27:50.610Z,8.40
2017-11-22T22:30:17.357Z,8.20
2017-11-22T22:32:44.118Z,8.20
2017-11-22T22:35:10.149Z,8.20
2017-11-22T22:37:36.162Z,8.10
2017-11-22T22:40:02.771Z,8.10
2017-11-22T22:42:29.512Z,8.20
2017-11-22T22:44:55.711Z,8.10
2017-11-22T22:47:21.724Z,8.10
2017-11-22T22:49:47.903Z,8.00
2017-11-22T22:52:14.019Z,8.00
2017-11-22T22:54:40.001Z,8.00
2017-11-22T22:57:06.003Z,8.00
2017-11-22T22:59:32.024Z,8.00
2017-11-22T23:01:58.104Z,8.00
2017-11-22T23:04:24.115Z,8.00
2017-11-22T23:06:50.879Z,8.00
2017-11-22T23:09:17.120Z,8.00
2017-11-22T23:11:43.210Z,8.10
2017-11-22T23:14:09.955Z,8.10
2017-11-22T23:16:36.820Z,8.10
2017-11-22T23:19:02.821Z,8.10
2017-11-22T23:21:29.552Z,8.10
2017-11-22T23:23:56.491Z,8.00
2017-11-22T23:26:22.451Z,8.00
2017-11-22T23:28:48.474Z,8.10
2017-11-22T23:31:14.589Z,8.00
2017-11-22T23:33:40.582Z,8.10
2017-11-22T23:36:07.305Z,8.10
2017-11-22T23:38:33.650Z,8.10
2017-11-22T23:41:00.382Z,8.10
2017-11-22T23:43:26.399Z,8.10
2017-11-22T23:45:52.542Z,8.00
2017-11-22T23:48:19.286Z,8.00
2017-11-22T23:50:46.010Z,7.90
2017-11-22T23:53:12.030Z,7.90
2017-11-22T23:55:38.035Z,7.80
2017-11-22T23:58:04.062Z,7.80
